Time;durP1;ratioP1;P1;durP2;ratioP2;P2;SDS_P1;SDS_P2;PMS_P1;PMS_P2;Temp;Humidity;BMP_temperature;BMP_pressure;BME280_temperature;BME280_humidity;BME280_pressure;Samples;Min_cycle;Max_cycle;Signal;HPM_P1;HPM_P2
2022/11/18 01:49:59;;;;;;;21.60;19.02;;;;;;;1.84;85.60;99617.28;4941658;28;20088;-76
2022/11/18 02:45:30;;;;;;;23.80;18.83;;;;;;;1.75;83.97;99623.66;4922009;28;20140;-78
2022/11/18 03:01:16;;;;;;;22.92;19.40;;;;;;;1.75;83.72;99628.84;4921308;28;20178;-77
2022/11/18 03:52:26;;;;;;;24.42;21.65;;;;;;;1.24;86.92;99655.00;4914010;28;20170;-77
2022/11/18 03:59:22;;;;;;;27.17;24.00;;;;;;;1.29;86.47;99658.28;4919577;28;20180;-77
2022/11/18 04:01:53;;;;;;;26.48;23.08;;;;;;;1.22;86.38;99662.84;4924862;28;20130;-76
2022/11/18 04:04:24;;;;;;;25.67;22.80;;;;;;;1.19;86.91;99665.53;4903714;28;20556;-77
2022/11/18 04:07:13;;;;;;;27.17;23.80;;;;;;;1.29;86.57;99663.47;4917526;28;20129;-77
2022/11/18 04:09:46;;;;;;;27.83;24.65;;;;;;;1.22;86.94;99681.00;4934936;28;20980;-77
2022/11/18 06:25:36;;;;;;;29.45;21.85;;;;;;;0.43;85.61;99793.31;4922502;28;20056;-77
2022/11/18 06:44:56;;;;;;;25.00;21.13;;;;;;;0.49;82.32;99813.81;4930017;28;20102;-75
2022/11/18 06:47:23;;;;;;;28.42;22.15;;;;;;;0.44;82.46;99820.88;4927786;28;20114;-74
2022/11/18 06:49:50;;;;;;;28.33;21.17;;;;;;;0.37;81.39;99821.13;4923574;28;20170;-74
2022/11/18 06:52:17;;;;;;;28.95;22.02;;;;;;;0.40;82.42;99821.03;4919196;28;20121;-75
2022/11/18 06:54:45;;;;;;;26.08;21.42;;;;;;;0.43;82.19;99823.53;4945394;28;20133;-74
2022/11/18 06:57:12;;;;;;;27.13;21.63;;;;;;;0.48;82.77;99829.41;4920542;28;20083;-74
2022/11/18 06:59:39;;;;;;;27.15;21.42;;;;;;;0.45;81.64;99839.84;4987219;28;20523;-74
2022/11/18 07:02:06;;;;;;;25.92;20.75;;;;;;;0.37;81.38;99832.34;4922257;28;20090;-76
2022/11/18 07:04:38;;;;;;;29.23;22.08;;;;;;;0.35;81.37;99841.88;4919245;28;20082;-74
2022/11/18 07:07:06;;;;;;;26.58;21.17;;;;;;;0.39;82.12;99845.22;4924373;28;20140;-74
2022/11/18 07:09:34;;;;;;;27.73;22.98;;;;;;;0.37;80.76;99847.03;4920848;28;20222;-74
2022/11/18 07:12:03;;;;;;;27.88;21.40;;;;;;;0.32;80.90;99839.41;4915872;28;20164;-75
2022/11/18 07:14:30;;;;;;;28.52;22.75;;;;;;;0.24;80.41;99841.34;4931528;28;20060;-75
2022/11/18 07:16:58;;;;;;;29.10;22.30;;;;;;;0.24;80.15;99846.53;4924583;28;20087;-75
2022/11/18 07:19:25;;;;;;;26.95;22.13;;;;;;;0.26;80.70;99847.31;4922569;28;20504;-74
2022/11/18 07:22:00;;;;;;;24.27;20.13;;;;;;;0.25;80.93;99846.47;4900961;28;20476;-74
2022/11/18 07:24:27;;;;;;;26.60;21.13;;;;;;;0.32;80.72;99843.72;4917811;28;20136;-75
2022/11/18 07:26:55;;;;;;;26.90;21.52;;;;;;;0.31;80.92;99853.22;4917670;28;20051;-75
2022/11/18 07:29:23;;;;;;;26.63;20.98;;;;;;;0.36;80.30;99856.53;4914357;28;20056;-73
2022/11/18 07:31:50;;;;;;;25.70;21.35;;;;;;;0.33;79.81;99859.22;4913585;28;20055;-73
2022/11/18 07:34:17;;;;;;;25.40;21.80;;;;;;;0.31;80.31;99870.47;4902663;29;20121;-75
2022/11/18 07:36:45;;;;;;;24.73;19.83;;;;;;;0.28;79.47;99870.59;4915203;28;20039;-74
2022/11/18 07:39:12;;;;;;;26.70;21.88;;;;;;;0.27;79.89;99874.06;4917585;29;20200;-76
2022/11/18 07:41:40;;;;;;;26.02;20.73;;;;;;;0.34;80.16;99878.16;4922834;28;20522;-75
2022/11/18 07:44:10;;;;;;;29.73;22.48;;;;;;;0.34;78.71;99873.00;4921578;28;20143;-74
2022/11/18 07:46:38;;;;;;;27.10;20.30;;;;;;;0.30;78.64;99881.75;4904650;28;20058;-75
2022/11/18 07:49:07;;;;;;;25.77;20.63;;;;;;;0.37;79.88;99878.09;4931927;29;20547;-74
2022/11/18 07:51:36;;;;;;;28.33;21.88;;;;;;;0.41;79.10;99884.88;4957720;28;20590;-74
2022/11/18 07:54:08;;;;;;;30.13;22.15;;;;;;;0.46;78.86;99880.41;4930059;28;20135;-73
2022/11/18 07:56:36;;;;;;;28.35;22.25;;;;;;;0.38;77.98;99882.38;4898381;28;20088;-74
2022/11/18 07:59:04;;;;;;;31.38;22.60;;;;;;;0.40;78.84;99885.75;4919184;28;20147;-74
2022/11/18 08:01:31;;;;;;;31.92;23.10;;;;;;;0.34;77.99;99885.94;4989249;28;20083;-73
2022/11/18 08:04:10;;;;;;;28.00;21.58;;;;;;;0.35;78.13;99893.66;4887509;28;20091;-73
2022/11/18 08:06:38;;;;;;;28.98;21.70;;;;;;;0.33;78.35;99892.00;4929595;28;20304;-74
2022/11/18 08:09:06;;;;;;;26.77;21.40;;;;;;;0.28;77.82;99893.91;4922246;28;20075;-73
2022/11/18 08:11:34;;;;;;;27.38;21.67;;;;;;;0.23;77.65;99889.69;4918375;28;20113;-76
2022/11/18 08:14:01;;;;;;;27.83;20.25;;;;;;;0.32;79.05;99898.09;4914194;28;20728;-74
2022/11/18 08:16:29;;;;;;;24.50;20.05;;;;;;;0.30;77.97;99898.13;4969728;28;20145;-76
2022/11/18 08:18:59;;;;;;;28.88;22.27;;;;;;;0.33;77.43;99899.78;4924473;28;20051;-74
2022/11/18 08:21:27;;;;;;;26.38;21.13;;;;;;;0.36;77.91;99903.13;4908284;28;20119;-74
2022/11/18 08:23:56;;;;;;;30.33;21.92;;;;;;;0.42;78.18;99905.53;4920414;29;20142;-76
2022/11/18 08:26:24;;;;;;;26.38;21.92;;;;;;;0.46;77.07;99916.66;4920699;28;20052;-74
2022/11/18 08:28:52;;;;;;;28.67;20.85;;;;;;;0.42;77.30;99900.34;4933093;29;20102;-74
2022/11/18 08:31:23;;;;;;;25.10;20.38;;;;;;;0.40;77.03;99906.47;5000304;28;20191;-75
2022/11/18 08:34:00;;;;;;;24.27;19.77;;;;;;;0.40;77.41;99909.91;4933296;28;20067;-76
2022/11/18 08:36:29;;;;;;;27.67;21.33;;;;;;;0.34;76.77;99912.66;4924261;28;20142;-75
2022/11/18 08:38:57;;;;;;;25.17;19.42;;;;;;;0.32;77.13;99916.22;4923693;28;20179;-75
2022/11/18 08:41:30;;;;;;;28.50;20.77;;;;;;;0.30;76.68;99923.16;4932186;28;20780;-75
2022/11/18 08:43:58;;;;;;;24.83;19.70;;;;;;;0.31;77.02;99925.69;4918491;28;20131;-75
2022/11/18 08:46:27;;;;;;;26.60;19.80;;;;;;;0.33;77.06;99939.47;4918322;28;20048;-75
2022/11/18 08:49:03;;;;;;;26.60;20.95;;;;;;;0.31;77.35;99943.81;4922654;28;20837;-75
2022/11/18 08:51:38;;;;;;;22.85;18.85;;;;;;;0.30;76.70;99936.94;4922386;28;20040;-74
2022/11/18 08:54:07;;;;;;;25.73;18.60;;;;;;;0.32;76.98;99950.72;4925863;28;20066;-75
2022/11/18 08:56:35;;;;;;;24.63;18.65;;;;;;;0.37;76.50;99951.44;4909336;28;20063;-76
2022/11/18 08:59:02;;;;;;;22.77;17.67;;;;;;;0.27;76.48;99949.13;4937045;28;20064;-74
2022/11/18 09:01:29;;;;;;;23.83;19.50;;;;;;;0.14;76.03;99962.41;4924682;28;20139;-74
2022/11/18 09:03:59;;;;;;;24.63;19.33;;;;;;;0.11;76.90;99962.50;4965840;28;20043;-74
2022/11/18 09:06:27;;;;;;;27.15;19.48;;;;;;;0.12;76.76;99960.75;4918868;28;20083;-73
2022/11/18 09:08:56;;;;;;;24.23;19.55;;;;;;;0.02;77.05;99967.06;4922200;28;20147;-73
2022/11/18 09:11:30;;;;;;;23.50;18.30;;;;;;;-0.01;76.89;99971.41;4921808;28;20055;-75
2022/11/18 09:13:59;;;;;;;24.38;19.30;;;;;;;0.05;77.05;99973.00;4923873;29;20040;-74
2022/11/18 09:16:46;;;;;;;24.77;19.30;;;;;;;0.06;77.19;99982.47;4975196;28;20048;-75
2022/11/18 09:19:14;;;;;;;25.02;19.20;;;;;;;0.03;77.17;99976.53;4917732;28;20076;-74
2022/11/18 09:22:04;;;;;;;28.50;18.95;;;;;;;0.02;77.06;99990.34;4908773;28;20083;-75
2022/11/18 09:24:35;;;;;;;23.23;17.15;;;;;;;0.04;77.39;99991.16;4904283;28;20051;-74
2022/11/18 09:27:05;;;;;;;23.48;17.13;;;;;;;0.07;76.70;99997.09;4919775;28;20135;-75
2022/11/18 09:29:35;;;;;;;21.55;16.10;;;;;;;0.11;76.62;100001.31;4901525;29;20494;-75
2022/11/18 09:32:03;;;;;;;21.30;16.00;;;;;;;0.18;76.70;99997.69;4924703;28;20519;-75
2022/11/18 09:34:30;;;;;;;20.95;15.82;;;;;;;0.22;76.52;100003.59;4927328;28;20098;-75
2022/11/18 09:36:57;;;;;;;26.20;16.80;;;;;;;0.19;76.59;100006.28;4906323;28;20090;-76
2022/11/18 09:39:25;;;;;;;21.27;15.48;;;;;;;0.23;76.63;100005.31;4934930;28;20052;-76
2022/11/18 09:42:29;;;;;;;22.35;15.20;;;;;;;0.24;76.46;100007.88;4919632;28;20118;-75
2022/11/18 09:45:21;;;;;;;22.10;16.00;;;;;;;0.14;76.42;100011.59;4910728;28;20059;-75
2022/11/18 09:47:56;;;;;;;18.15;14.45;;;;;;;0.11;76.63;100010.81;4920442;28;20134;-75
2022/11/18 09:50:23;;;;;;;19.90;13.65;;;;;;;0.11;76.77;100018.59;4967610;28;20475;-78
2022/11/18 09:53:16;;;;;;;16.13;13.20;;;;;;;0.07;77.05;100024.72;4928869;28;20067;-79
2022/11/18 09:55:44;;;;;;;16.95;12.30;;;;;;;0.03;77.16;100028.28;4938785;28;20543;-74
2022/11/18 09:58:24;;;;;;;12.60;10.60;;;;;;;0.11;77.34;100024.59;4918296;28;20065;-77
2022/11/18 10:00:51;;;;;;;14.65;10.43;;;;;;;0.15;76.45;100026.22;4914572;28;20621;-76
2022/11/18 10:03:30;;;;;;;12.55;9.95;;;;;;;0.10;76.14;100027.25;4929285;28;20610;-78
2022/11/18 10:06:25;;;;;;;11.52;8.73;;;;;;;0.11;76.09;100024.59;4925285;28;20063;-74
2022/11/18 10:09:08;;;;;;;11.63;8.98;;;;;;;0.09;75.42;100038.47;4894718;29;20070;-76
2022/11/18 10:12:02;;;;;;;10.93;8.52;;;;;;;0.14;76.02;100039.22;4943153;28;20489;-75
2022/11/18 10:15:14;;;;;;;12.40;9.00;;;;;;;0.17;75.27;100042.56;4930809;28;20658;-75
2022/11/18 10:17:49;;;;;;;14.30;8.82;;;;;;;0.11;75.86;100044.47;4902633;28;20132;-74
2022/11/18 10:20:20;;;;;;;10.25;8.27;;;;;;;0.05;75.25;100036.88;4920794;28;20166;-75
2022/11/18 10:23:13;;;;;;;11.32;8.65;;;;;;;0.03;75.50;100036.03;4936109;28;20053;-75
2022/11/18 10:25:41;;;;;;;11.10;8.35;;;;;;;0.04;75.39;100038.56;4924262;29;20071;-79
2022/11/18 10:28:28;;;;;;;11.27;8.68;;;;;;;0.01;75.49;100043.00;4921661;28;20524;-75
2022/11/18 10:31:04;;;;;;;12.20;8.23;;;;;;;0.02;75.17;100048.13;4931291;28;20074;-74
2022/11/18 10:33:31;;;;;;;10.88;7.95;;;;;;;0.03;75.34;100048.97;4939022;28;20143;-75
2022/11/18 10:36:07;;;;;;;9.40;7.82;;;;;;;0.04;74.93;100051.50;4948547;28;20492;-75
2022/11/18 10:38:35;;;;;;;12.50;8.23;;;;;;;0.06;75.60;100054.94;4915490;28;20144;-74
2022/11/18 10:41:11;;;;;;;12.15;8.35;;;;;;;-0.01;74.80;100053.38;4922729;28;20729;-76
2022/11/18 10:43:53;;;;;;;8.55;6.88;;;;;;;-0.04;75.33;100056.91;4921379;28;20055;-75
2022/11/18 10:46:38;;;;;;;11.45;7.75;;;;;;;-0.08;74.89;100062.19;4924080;28;20568;-74
2022/11/18 10:49:08;;;;;;;13.20;8.00;;;;;;;0.00;74.99;100057.69;4915415;28;20067;-74
2022/11/18 10:51:45;;;;;;;9.95;7.47;;;;;;;0.10;74.53;100059.16;4946370;28;20154;-75
2022/11/18 10:54:18;;;;;;;9.25;6.90;;;;;;;-0.01;73.95;100064.56;4956913;28;20059;-75
2022/11/18 10:56:48;;;;;;;9.95;7.63;;;;;;;-0.03;74.97;100060.34;4921701;28;20122;-75
2022/11/18 10:59:22;;;;;;;11.20;7.53;;;;;;;-0.06;75.29;100066.41;4960365;28;20125;-74
2022/11/18 11:02:11;;;;;;;11.38;7.55;;;;;;;-0.02;75.64;100067.22;4922592;28;20925;-75
2022/11/18 11:04:40;;;;;;;9.68;7.30;;;;;;;0.06;75.57;100075.63;4914442;28;20055;-74
2022/11/18 11:07:27;;;;;;;10.38;7.80;;;;;;;0.13;75.11;100082.34;4919018;28;20139;-76
2022/11/18 11:10:19;;;;;;;9.40;7.93;;;;;;;0.12;74.62;100079.81;4969741;28;20152;-75
2022/11/18 11:12:51;;;;;;;11.85;7.82;;;;;;;0.08;75.01;100078.19;4937419;28;20515;-76
2022/11/18 11:15:26;;;;;;;13.02;8.07;;;;;;;0.02;74.77;100076.59;4927454;28;20085;-75
2022/11/18 11:20:58;;;;;;;12.88;9.45;;;;;;;0.10;75.31;100077.25;4926451;28;20079;-76
2022/11/18 11:23:25;;;;;;;11.15;8.55;;;;;;;0.13;75.82;100081.50;4931489;28;20091;-75
2022/11/18 11:26:09;;;;;;;11.10;9.20;;;;;;;0.27;75.32;100070.78;4927032;28;20083;-75
2022/11/18 11:29:00;;;;;;;12.40;9.60;;;;;;;0.37;75.35;100072.28;4946809;28;20574;-76
2022/11/18 11:31:43;;;;;;;13.10;9.02;;;;;;;0.37;75.48;100067.09;4952598;28;20106;-75
2022/11/18 11:34:16;;;;;;;11.38;8.88;;;;;;;0.38;75.02;100072.22;4916336;28;20906;-76
2022/11/18 11:36:50;;;;;;;13.52;9.13;;;;;;;0.44;75.07;100074.66;4950639;28;20102;-76
2022/11/18 11:39:30;;;;;;;11.45;8.52;;;;;;;0.47;75.11;100082.34;4931858;28;20090;-74
2022/11/18 11:42:16;;;;;;;11.35;9.07;;;;;;;0.47;74.36;100078.91;4936814;28;20063;-75
2022/11/18 11:44:57;;;;;;;13.25;9.10;;;;;;;0.49;74.93;100079.69;4924855;28;20143;-76
2022/11/18 11:47:46;;;;;;;12.10;8.63;;;;;;;0.42;73.76;100081.63;4943421;28;20075;-76
2022/11/18 11:50:23;;;;;;;11.35;9.57;;;;;;;0.46;74.70;100072.88;4954923;28;20079;-77
2022/11/18 11:53:15;;;;;;;11.00;8.57;;;;;;;0.54;74.67;100083.03;4933796;28;20062;-77
2022/11/18 11:56:20;;;;;;;13.65;9.60;;;;;;;0.61;74.54;100087.16;4952749;28;20127;-75
2022/11/18 11:59:13;;;;;;;13.13;9.48;;;;;;;0.50;73.31;100079.69;4936703;28;20040;-75
2022/11/18 12:02:02;;;;;;;14.02;9.85;;;;;;;0.48;73.67;100084.03;4923709;28;20143;-75
2022/11/18 12:04:35;;;;;;;11.45;9.30;;;;;;;0.45;74.12;100091.91;4944121;28;20527;-76
2022/11/18 12:07:05;;;;;;;13.82;9.45;;;;;;;0.50;73.26;100087.44;4941452;28;20111;-74
2022/11/18 12:09:32;;;;;;;12.73;9.43;;;;;;;0.59;73.77;100090.69;5004939;28;20055;-75
2022/11/18 12:12:33;;;;;;;12.68;9.90;;;;;;;0.67;74.46;100097.34;4947710;28;20070;-76
2022/11/18 12:15:10;;;;;;;11.55;8.57;;;;;;;0.82;73.90;100103.03;4957917;28;20107;-75
2022/11/18 12:17:48;;;;;;;12.30;8.23;;;;;;;0.88;73.35;100103.69;4926522;28;20055;-75
2022/11/18 12:20:34;;;;;;;11.23;8.00;;;;;;;0.86;72.46;100099.47;4933041;28;20468;-75
2022/11/18 12:23:11;;;;;;;9.48;7.88;;;;;;;0.84;70.95;100106.41;4940339;28;20064;-75
2022/11/18 12:26:03;;;;;;;12.20;7.32;;;;;;;0.86;70.88;100115.84;4986458;28;20049;-76
2022/11/18 12:28:40;;;;;;;9.82;7.22;;;;;;;0.95;71.11;100123.38;4942715;28;20111;-75
2022/11/18 12:31:16;;;;;;;8.95;6.93;;;;;;;1.09;71.14;100117.81;4907442;28;20067;-75
2022/11/18 12:33:50;;;;;;;8.82;7.18;;;;;;;1.50;70.14;100120.94;4931502;28;20143;-75
2022/11/18 12:36:32;;;;;;;9.70;7.00;;;;;;;2.21;69.42;100130.84;4925916;28;20138;-74
2022/11/18 12:39:24;;;;;;;9.65;6.68;;;;;;;2.48;68.80;100129.06;4936496;28;20179;-76
2022/11/18 12:44:49;;;;;;;9.63;6.78;;;;;;;2.97;67.35;100127.38;4925092;28;20163;-77
2022/11/18 12:47:41;;;;;;;10.90;7.05;;;;;;;3.51;66.24;100131.47;4924049;28;20132;-75
2022/11/18 12:50:11;;;;;;;9.27;7.18;;;;;;;4.17;64.07;100131.47;4994750;28;20135;-75
2022/11/18 12:52:38;;;;;;;9.63;6.93;;;;;;;4.77;61.24;100136.78;4926622;28;20190;-74
2022/11/18 12:55:20;;;;;;;8.27;6.13;;;;;;;4.96;55.77;100137.72;4989065;28;20060;-75
2022/11/18 12:57:48;;;;;;;8.15;5.90;;;;;;;5.15;58.03;100131.69;4919844;29;20075;-75
2022/11/18 13:00:21;;;;;;;7.65;5.88;;;;;;;5.29;57.89;100130.16;4979298;28;20885;-75
2022/11/18 13:02:54;;;;;;;9.52;6.68;;;;;;;5.40;57.73;100121.81;4934891;28;20047;-75
2022/11/18 13:05:32;;;;;;;7.65;6.22;;;;;;;5.60;56.89;100131.38;4937442;28;20043;-77
2022/11/18 13:08:14;;;;;;;8.82;6.22;;;;;;;5.81;56.83;100132.13;4927554;28;20146;-77
2022/11/18 13:11:43;;;;;;;6.78;5.93;;;;;;;5.70;55.91;100132.63;4925293;28;20676;-76
2022/11/18 13:13:42;;;;;;;8.05;5.85;;;;;;;5.61;55.75;100134.81;4921919;29;20151;-76
2022/11/18 13:19:23;;;;;;;8.52;6.03;;;;;;;5.44;56.69;100144.25;4921678;28;20140;-76
2022/11/18 13:24:47;;;;;;;9.52;6.00;;;;;;;5.00;58.21;100151.47;4921727;28;20486;-76
2022/11/18 13:27:24;;;;;;;7.18;5.88;;;;;;;4.61;57.79;100151.41;4930493;28;20136;-75
2022/11/18 13:30:05;;;;;;;7.40;5.88;;;;;;;4.19;55.91;100152.25;4910327;28;20138;-76
2022/11/18 13:32:32;;;;;;;6.85;5.45;;;;;;;3.95;59.02;100154.06;4909523;28;20080;-76
2022/11/18 13:35:15;;;;;;;8.25;6.03;;;;;;;3.90;58.37;100159.47;4927574;28;20528;-76
2022/11/18 13:37:58;;;;;;;9.13;6.03;;;;;;;3.93;61.31;100158.50;4920558;28;20105;-77
2022/11/18 13:40:37;;;;;;;8.50;6.30;;;;;;;3.88;59.54;100150.88;4924012;28;20423;-76
2022/11/18 13:43:05;;;;;;;8.38;6.25;;;;;;;3.98;60.99;100153.97;4927748;28;20052;-77
2022/11/18 13:45:33;;;;;;;6.30;5.70;;;;;;;3.93;59.24;100148.94;4928507;28;20059;-76
2022/11/18 13:48:08;;;;;;;6.13;4.93;;;;;;;3.90;59.02;100151.63;4941007;28;20079;-76
2022/11/18 13:50:50;;;;;;;6.97;5.30;;;;;;;4.00;57.25;100152.13;4942086;28;20100;-75
2022/11/18 15:30:33;;;;;;;5.35;3.78;;;;;;;1.16;64.13;100268.84;4930332;28;20128;-76
2022/11/18 15:59:01;;;;;;;6.00;4.22;;;;;;;0.85;66.05;100297.25;4915189;28;20059;-77
2022/11/18 17:29:04;;;;;;;9.55;6.20;;;;;;;-0.08;66.71;100368.34;4915318;28;20162;-76
2022/11/18 17:53:06;;;;;;;9.88;6.22;;;;;;;-0.38;67.24;100385.28;4923957;28;20523;-77
2022/11/18 17:55:33;;;;;;;8.48;6.15;;;;;;;-0.41;67.11;100387.06;4920775;28;20055;-77
2022/11/18 17:58:00;;;;;;;10.45;6.50;;;;;;;-0.36;67.33;100387.84;4914793;28;20491;-77
2022/11/18 18:00:30;;;;;;;11.57;8.15;;;;;;;-0.34;66.96;100386.09;4899127;28;20143;-77
2022/11/18 18:02:58;;;;;;;9.60;6.43;;;;;;;-0.46;67.52;100386.31;4923516;28;20398;-77
2022/11/18 18:09:52;;;;;;;11.40;7.32;;;;;;;-0.64;67.85;100390.91;4919382;28;20824;-76
2022/11/18 18:15:30;;;;;;;13.10;9.18;;;;;;;-0.57;67.52;100394.25;4909473;28;20056;-78
2022/11/18 19:18:00;;;;;;;9.15;7.38;;;;;;;-0.62;67.33;100442.59;4922636;28;20039;-77
2022/11/18 19:20:35;;;;;;;12.07;8.20;;;;;;;-0.65;67.46;100446.09;4927227;28;20086;-78
2022/11/18 19:23:06;;;;;;;10.25;7.90;;;;;;;-0.63;67.89;100439.16;4918681;28;20087;-78
2022/11/18 19:25:36;;;;;;;12.05;8.13;;;;;;;-0.67;67.66;100439.25;4929458;28;20127;-76
2022/11/18 20:23:23;;;;;;;12.73;8.63;;;;;;;-1.00;69.18;100492.25;4921498;28;20186;-76
2022/11/18 20:56:51;;;;;;;19.80;13.07;;;;;;;-1.28;69.45;100519.31;4913487;28;20085;-78
2022/11/18 21:33:48;;;;;;;18.05;12.30;;;;;;;-1.52;69.66;100558.34;4926624;28;20050;-77
2022/11/18 21:49:30;;;;;;;20.83;12.55;;;;;;;-1.70;70.10;100564.53;4928851;28;20043;-77
2022/11/18 21:51:57;;;;;;;18.98;12.73;;;;;;;-1.67;69.94;100566.22;4927610;29;20052;-78
2022/11/18 21:54:27;;;;;;;18.67;12.50;;;;;;;-1.68;70.24;100564.50;4934908;28;20123;-76
2022/11/18 21:57:03;;;;;;;16.60;11.95;;;;;;;-1.68;70.47;100561.94;4938544;28;20222;-77
2022/11/18 21:59:30;;;;;;;22.02;13.50;;;;;;;-1.70;70.26;100555.94;4923926;28;20047;-76
2022/11/18 22:01:57;;;;;;;19.10;13.52;;;;;;;-1.76;70.62;100561.13;4930123;28;20083;-76
2022/11/18 22:07:10;;;;;;;19.83;12.57;;;;;;;-1.81;70.38;100561.19;4925170;28;20058;-76
2022/11/18 22:09:38;;;;;;;17.02;12.93;;;;;;;-1.82;70.74;100562.91;4930660;28;20139;-78
2022/11/18 22:12:05;;;;;;;17.45;12.48;;;;;;;-1.78;70.70;100558.59;4925666;28;20059;-78
2022/11/18 22:14:34;;;;;;;20.65;13.40;;;;;;;-1.85;70.59;100559.50;4925118;28;20079;-78
2022/11/18 22:17:01;;;;;;;18.88;13.68;;;;;;;-1.93;70.83;100566.47;4930559;28;20126;-78
2022/11/18 22:19:28;;;;;;;22.48;13.43;;;;;;;-1.93;71.03;100569.06;4951244;28;20076;-78
2022/11/18 22:21:56;;;;;;;23.27;14.20;;;;;;;-1.94;70.56;100569.91;4925951;28;20490;-77
2022/11/18 22:37:00;;;;;;;16.75;11.90;;;;;;;-1.96;70.29;100572.50;4925377;28;20058;-80
2022/11/18 22:56:44;;;;;;;19.05;11.68;;;;;;;-2.08;70.46;100588.94;4923972;29;20051;-75
2022/11/18 23:47:18;;;;;;;19.90;11.82;;;;;;;-2.44;71.31;100609.81;4932109;28;20051;-75
